sensor_id;sensor_type;location;lat;lon;timestamp;temperature;humidity
8105;DHT22;4095;48.942;9.104;2023-06-24T00:00:39;19.40;99.90
8105;DHT22;4095;48.942;9.104;2023-06-24T00:03:05;19.30;99.90
8105;DHT22;4095;48.942;9.104;2023-06-24T00:05:32;19.30;99.90
8105;DHT22;4095;48.942;9.104;2023-06-24T00:07:58;19.20;99.90
8105;DHT22;4095;48.942;9.104;2023-06-24T00:10:27;19.10;99.90
8105;DHT22;4095;48.942;9.104;2023-06-24T00:12:53;19.10;99.90
8105;DHT22;4095;48.942;9.104;2023-06-24T00:15:18;19.10;99.90
8105;DHT22;4095;48.942;9.104;2023-06-24T00:17:44;19.00;99.90
8105;DHT22;4095;48.942;9.104;2023-06-24T00:20:10;19.00;99.90
8105;DHT22;4095;48.942;9.104;2023-06-24T00:22:38;18.90;99.90
8105;DHT22;4095;48.942;9.104;2023-06-24T00:25:09;18.90;99.90
8105;DHT22;4095;48.942;9.104;2023-06-24T00:27:36;18.80;99.90
8105;DHT22;4095;48.942;9.104;2023-06-24T00:30:01;18.80;99.90
8105;DHT22;4095;48.942;9.104;2023-06-24T00:32:27;18.80;99.90
8105;DHT22;4095;48.942;9.104;2023-06-24T00:34:52;18.80;99.90
8105;DHT22;4095;48.942;9.104;2023-06-24T00:37:18;18.80;99.90
8105;DHT22;4095;48.942;9.104;2023-06-24T00:39:43;18.80;99.90
8105;DHT22;4095;48.942;9.104;2023-06-24T00:42:09;18.80;99.90
8105;DHT22;4095;48.942;9.104;2023-06-24T00:44:35;18.80;99.90
8105;DHT22;4095;48.942;9.104;2023-06-24T00:47:03;18.70;99.90
8105;DHT22;4095;48.942;9.104;2023-06-24T00:49:28;18.70;99.90
8105;DHT22;4095;48.942;9.104;2023-06-24T00:51:54;18.70;99.90
8105;DHT22;4095;48.942;9.104;2023-06-24T00:54:21;18.70;99.90
8105;DHT22;4095;48.942;9.104;2023-06-24T00:56:46;18.60;99.90
8105;DHT22;4095;48.942;9.104;2023-06-24T00:59:14;18.60;99.90
8105;DHT22;4095;48.942;9.104;2023-06-24T01:01:40;18.50;99.90
8105;DHT22;4095;48.942;9.104;2023-06-24T01:04:07;18.50;99.90
8105;DHT22;4095;48.942;9.104;2023-06-24T01:06:35;18.50;99.90
8105;DHT22;4095;48.942;9.104;2023-06-24T01:09:02;18.50;99.90
8105;DHT22;4095;48.942;9.104;2023-06-24T01:11:30;18.50;99.90
8105;DHT22;4095;48.942;9.104;2023-06-24T01:13:56;18.40;99.90
8105;DHT22;4095;48.942;9.104;2023-06-24T01:32:57;18.30;99.90
8105;DHT22;4095;48.942;9.104;2023-06-24T01:35:28;18.20;99.90
8105;DHT22;4095;48.942;9.104;2023-06-24T01:37:56;18.20;99.90
8105;DHT22;4095;48.942;9.104;2023-06-24T01:40:34;18.20;99.90
8105;DHT22;4095;48.942;9.104;2023-06-24T01:43:04;18.10;99.90
8105;DHT22;4095;48.942;9.104;2023-06-24T01:45:41;18.10;99.90
8105;DHT22;4095;48.942;9.104;2023-06-24T01:48:15;18.00;99.90
8105;DHT22;4095;48.942;9.104;2023-06-24T01:50:52;18.00;99.90
8105;DHT22;4095;48.942;9.104;2023-06-24T01:53:21;18.00;99.90
8105;DHT22;4095;48.942;9.104;2023-06-24T01:55:48;18.00;99.90
8105;DHT22;4095;48.942;9.104;2023-06-24T01:58:17;17.90;99.90
8105;DHT22;4095;48.942;9.104;2023-06-24T02:00:43;17.90;99.90
8105;DHT22;4095;48.942;9.104;2023-06-24T02:03:10;17.90;99.90
8105;DHT22;4095;48.942;9.104;2023-06-24T02:05:36;17.80;99.90
8105;DHT22;4095;48.942;9.104;2023-06-24T02:08:06;17.70;99.90
8105;DHT22;4095;48.942;9.104;2023-06-24T02:10:33;17.80;99.90
8105;DHT22;4095;48.942;9.104;2023-06-24T02:12:59;17.70;99.90
8105;DHT22;4095;48.942;9.104;2023-06-24T02:15:26;17.60;99.90
8105;DHT22;4095;48.942;9.104;2023-06-24T02:17:53;17.70;99.90
8105;DHT22;4095;48.942;9.104;2023-06-24T02:20:22;17.70;99.90
8105;DHT22;4095;48.942;9.104;2023-06-24T02:22:52;17.60;99.90
8105;DHT22;4095;48.942;9.104;2023-06-24T02:25:18;17.60;99.90
8105;DHT22;4095;48.942;9.104;2023-06-24T02:27:44;17.60;99.90
8105;DHT22;4095;48.942;9.104;2023-06-24T02:30:10;17.60;99.90
8105;DHT22;4095;48.942;9.104;2023-06-24T02:32:36;17.50;99.90
8105;DHT22;4095;48.942;9.104;2023-06-24T02:35:05;17.50;99.90
8105;DHT22;4095;48.942;9.104;2023-06-24T02:37:32;17.50;99.90
8105;DHT22;4095;48.942;9.104;2023-06-24T02:39:58;17.50;99.90
8105;DHT22;4095;48.942;9.104;2023-06-24T02:42:25;17.50;99.90
8105;DHT22;4095;48.942;9.104;2023-06-24T02:44:51;17.50;99.90
8105;DHT22;4095;48.942;9.104;2023-06-24T02:47:17;17.40;99.90
8105;DHT22;4095;48.942;9.104;2023-06-24T02:49:44;17.40;99.90
8105;DHT22;4095;48.942;9.104;2023-06-24T02:52:12;17.40;99.90
8105;DHT22;4095;48.942;9.104;2023-06-24T02:54:39;17.30;99.90
8105;DHT22;4095;48.942;9.104;2023-06-24T02:57:06;17.30;99.90
8105;DHT22;4095;48.942;9.104;2023-06-24T02:59:32;17.30;99.90
8105;DHT22;4095;48.942;9.104;2023-06-24T03:01:58;17.30;99.90
8105;DHT22;4095;48.942;9.104;2023-06-24T03:04:25;17.30;99.90
8105;DHT22;4095;48.942;9.104;2023-06-24T03:06:51;17.30;99.90
8105;DHT22;4095;48.942;9.104;2023-06-24T03:09:18;17.30;99.90
8105;DHT22;4095;48.942;9.104;2023-06-24T03:11:44;17.30;99.90
8105;DHT22;4095;48.942;9.104;2023-06-24T03:14:10;17.30;99.90
8105;DHT22;4095;48.942;9.104;2023-06-24T03:16:37;17.30;99.90
8105;DHT22;4095;48.942;9.104;2023-06-24T03:19:06;17.30;99.90
8105;DHT22;4095;48.942;9.104;2023-06-24T03:21:32;17.30;99.90
8105;DHT22;4095;48.942;9.104;2023-06-24T03:23:58;17.30;99.90
8105;DHT22;4095;48.942;9.104;2023-06-24T03:26:34;17.30;99.90
8105;DHT22;4095;48.942;9.104;2023-06-24T03:29:01;17.20;99.90
8105;DHT22;4095;48.942;9.104;2023-06-24T03:31:27;17.20;99.90
8105;DHT22;4095;48.942;9.104;2023-06-24T03:33:52;17.10;99.90
8105;DHT22;4095;48.942;9.104;2023-06-24T03:36:18;17.10;99.90
8105;DHT22;4095;48.942;9.104;2023-06-24T03:38:43;17.10;99.90
8105;DHT22;4095;48.942;9.104;2023-06-24T03:41:09;17.10;99.90
8105;DHT22;4095;48.942;9.104;2023-06-24T03:43:35;17.10;99.90
8105;DHT22;4095;48.942;9.104;2023-06-24T03:46:00;17.00;99.90
8105;DHT22;4095;48.942;9.104;2023-06-24T03:48:27;17.10;99.90
8105;DHT22;4095;48.942;9.104;2023-06-24T03:50:52;17.10;99.90
8105;DHT22;4095;48.942;9.104;2023-06-24T03:53:18;17.10;99.90
8105;DHT22;4095;48.942;9.104;2023-06-24T03:55:43;17.20;99.90
8105;DHT22;4095;48.942;9.104;2023-06-24T03:58:09;17.20;99.90
8105;DHT22;4095;48.942;9.104;2023-06-24T04:00:35;17.20;99.90
8105;DHT22;4095;48.942;9.104;2023-06-24T04:03:06;17.30;99.90
8105;DHT22;4095;48.942;9.104;2023-06-24T04:05:33;17.30;99.90
8105;DHT22;4095;48.942;9.104;2023-06-24T04:07:58;17.40;99.90
8105;DHT22;4095;48.942;9.104;2023-06-24T04:10:24;17.40;99.90
8105;DHT22;4095;48.942;9.104;2023-06-24T04:12:50;17.40;99.90
8105;DHT22;4095;48.942;9.104;2023-06-24T04:15:15;17.50;99.90
8105;DHT22;4095;48.942;9.104;2023-06-24T04:17:41;17.60;99.90
8105;DHT22;4095;48.942;9.104;2023-06-24T04:20:07;17.60;99.90
8105;DHT22;4095;48.942;9.104;2023-06-24T04:22:41;17.70;99.90
8105;DHT22;4095;48.942;9.104;2023-06-24T04:25:07;17.70;99.90
8105;DHT22;4095;48.942;9.104;2023-06-24T04:27:33;17.80;99.90
8105;DHT22;4095;48.942;9.104;2023-06-24T04:30:00;17.80;99.90
8105;DHT22;4095;48.942;9.104;2023-06-24T04:32:26;17.90;99.90
8105;DHT22;4095;48.942;9.104;2023-06-24T04:34:51;18.10;99.90
8105;DHT22;4095;48.942;9.104;2023-06-24T04:37:17;18.10;99.90
8105;DHT22;4095;48.942;9.104;2023-06-24T04:39:46;18.20;99.90
8105;DHT22;4095;48.942;9.104;2023-06-24T04:42:11;18.20;99.90
8105;DHT22;4095;48.942;9.104;2023-06-24T04:44:37;18.30;99.90
8105;DHT22;4095;48.942;9.104;2023-06-24T04:47:03;18.40;99.90
8105;DHT22;4095;48.942;9.104;2023-06-24T04:49:28;18.40;99.90
8105;DHT22;4095;48.942;9.104;2023-06-24T04:51:54;18.50;99.90
8105;DHT22;4095;48.942;9.104;2023-06-24T04:54:19;18.60;99.90
8105;DHT22;4095;48.942;9.104;2023-06-24T04:56:45;18.60;99.90
8105;DHT22;4095;48.942;9.104;2023-06-24T04:59:13;18.60;99.90
8105;DHT22;4095;48.942;9.104;2023-06-24T05:01:39;18.70;99.90
8105;DHT22;4095;48.942;9.104;2023-06-24T05:04:04;18.80;99.90
8105;DHT22;4095;48.942;9.104;2023-06-24T05:06:30;18.80;99.90
8105;DHT22;4095;48.942;9.104;2023-06-24T05:08:56;18.80;99.90
8105;DHT22;4095;48.942;9.104;2023-06-24T05:11:21;18.90;99.90
8105;DHT22;4095;48.942;9.104;2023-06-24T05:13:47;18.90;99.90
8105;DHT22;4095;48.942;9.104;2023-06-24T05:16:13;19.00;99.90
8105;DHT22;4095;48.942;9.104;2023-06-24T05:18:38;19.00;99.90
8105;DHT22;4095;48.942;9.104;2023-06-24T05:21:04;19.10;99.90
8105;DHT22;4095;48.942;9.104;2023-06-24T05:23:29;19.20;99.90
8105;DHT22;4095;48.942;9.104;2023-06-24T05:25:55;19.20;99.90
8105;DHT22;4095;48.942;9.104;2023-06-24T05:28:20;19.30;99.90
8105;DHT22;4095;48.942;9.104;2023-06-24T05:30:46;19.40;99.90
8105;DHT22;4095;48.942;9.104;2023-06-24T05:33:12;19.50;99.90
8105;DHT22;4095;48.942;9.104;2023-06-24T05:35:37;19.50;99.90
8105;DHT22;4095;48.942;9.104;2023-06-24T05:38:06;19.50;99.90
8105;DHT22;4095;48.942;9.104;2023-06-24T05:40:31;19.70;99.90
8105;DHT22;4095;48.942;9.104;2023-06-24T05:42:57;19.80;99.90
8105;DHT22;4095;48.942;9.104;2023-06-24T05:45:22;19.80;99.90
8105;DHT22;4095;48.942;9.104;2023-06-24T05:47:48;19.90;99.90
8105;DHT22;4095;48.942;9.104;2023-06-24T05:50:13;20.00;99.90
8105;DHT22;4095;48.942;9.104;2023-06-24T05:52:39;20.10;99.90
8105;DHT22;4095;48.942;9.104;2023-06-24T05:55:05;20.20;99.90
8105;DHT22;4095;48.942;9.104;2023-06-24T05:57:30;20.30;99.90
8105;DHT22;4095;48.942;9.104;2023-06-24T05:59:56;20.30;99.90
8105;DHT22;4095;48.942;9.104;2023-06-24T06:02:22;20.40;99.90
8105;DHT22;4095;48.942;9.104;2023-06-24T06:04:47;20.50;99.90
8105;DHT22;4095;48.942;9.104;2023-06-24T06:07:13;20.60;99.90
8105;DHT22;4095;48.942;9.104;2023-06-24T06:09:38;20.70;99.90
8105;DHT22;4095;48.942;9.104;2023-06-24T06:12:05;20.80;99.90
8105;DHT22;4095;48.942;9.104;2023-06-24T06:14:30;20.90;99.90
8105;DHT22;4095;48.942;9.104;2023-06-24T06:16:56;21.00;99.90
8105;DHT22;4095;48.942;9.104;2023-06-24T06:19:21;21.10;99.90
8105;DHT22;4095;48.942;9.104;2023-06-24T06:21:49;21.10;99.90
8105;DHT22;4095;48.942;9.104;2023-06-24T06:24:14;21.20;99.90
8105;DHT22;4095;48.942;9.104;2023-06-24T06:26:43;21.30;99.90
8105;DHT22;4095;48.942;9.104;2023-06-24T06:29:10;21.40;99.90
8105;DHT22;4095;48.942;9.104;2023-06-24T06:31:35;21.50;99.90
8105;DHT22;4095;48.942;9.104;2023-06-24T06:34:01;21.50;99.90
8105;DHT22;4095;48.942;9.104;2023-06-24T06:36:27;21.50;99.90
8105;DHT22;4095;48.942;9.104;2023-06-24T06:38:52;21.60;99.90
8105;DHT22;4095;48.942;9.104;2023-06-24T06:41:18;21.70;99.90
8105;DHT22;4095;48.942;9.104;2023-06-24T06:43:52;21.80;99.90
8105;DHT22;4095;48.942;9.104;2023-06-24T06:46:18;21.90;99.90
8105;DHT22;4095;48.942;9.104;2023-06-24T06:48:44;21.90;99.90
8105;DHT22;4095;48.942;9.104;2023-06-24T06:51:09;22.00;99.90
8105;DHT22;4095;48.942;9.104;2023-06-24T06:53:35;22.00;99.90
8105;DHT22;4095;48.942;9.104;2023-06-24T06:56:01;22.10;99.90
8105;DHT22;4095;48.942;9.104;2023-06-24T06:58:27;22.30;99.90
8105;DHT22;4095;48.942;9.104;2023-06-24T07:00:53;22.40;99.90
8105;DHT22;4095;48.942;9.104;2023-06-24T07:03:18;22.40;99.90
8105;DHT22;4095;48.942;9.104;2023-06-24T07:05:44;22.60;99.90
8105;DHT22;4095;48.942;9.104;2023-06-24T07:08:09;22.70;99.90
8105;DHT22;4095;48.942;9.104;2023-06-24T07:10:35;22.80;99.90
8105;DHT22;4095;48.942;9.104;2023-06-24T07:13:01;22.90;99.60
8105;DHT22;4095;48.942;9.104;2023-06-24T07:15:26;22.90;99.20
8105;DHT22;4095;48.942;9.104;2023-06-24T07:17:53;23.00;99.00
8105;DHT22;4095;48.942;9.104;2023-06-24T07:20:19;23.00;99.30
8105;DHT22;4095;48.942;9.104;2023-06-24T07:22:45;23.20;98.80
8105;DHT22;4095;48.942;9.104;2023-06-24T07:25:11;23.20;97.70
8105;DHT22;4095;48.942;9.104;2023-06-24T07:27:36;23.30;97.80
8105;DHT22;4095;48.942;9.104;2023-06-24T07:30:03;23.40;97.30
8105;DHT22;4095;48.942;9.104;2023-06-24T07:32:29;23.50;97.40
8105;DHT22;4095;48.942;9.104;2023-06-24T07:34:54;23.60;97.90
8105;DHT22;4095;48.942;9.104;2023-06-24T07:37:20;23.70;97.70
8105;DHT22;4095;48.942;9.104;2023-06-24T07:39:45;23.80;98.30
8105;DHT22;4095;48.942;9.104;2023-06-24T07:42:11;24.00;97.90
8105;DHT22;4095;48.942;9.104;2023-06-24T07:44:36;24.10;97.80
8105;DHT22;4095;48.942;9.104;2023-06-24T07:47:04;24.10;97.00
8105;DHT22;4095;48.942;9.104;2023-06-24T07:49:31;24.20;96.50
8105;DHT22;4095;48.942;9.104;2023-06-24T07:51:57;24.20;96.10
8105;DHT22;4095;48.942;9.104;2023-06-24T07:54:22;24.20;96.10
8105;DHT22;4095;48.942;9.104;2023-06-24T07:56:48;24.30;96.30
8105;DHT22;4095;48.942;9.104;2023-06-24T07:59:13;24.40;97.10
8105;DHT22;4095;48.942;9.104;2023-06-24T08:01:39;24.50;96.10
8105;DHT22;4095;48.942;9.104;2023-06-24T08:04:04;24.60;96.40
8105;DHT22;4095;48.942;9.104;2023-06-24T08:06:30;24.70;95.70
8105;DHT22;4095;48.942;9.104;2023-06-24T08:08:56;24.80;95.30
8105;DHT22;4095;48.942;9.104;2023-06-24T08:11:22;24.90;94.70
8105;DHT22;4095;48.942;9.104;2023-06-24T08:13:48;25.00;94.80
8105;DHT22;4095;48.942;9.104;2023-06-24T08:16:16;25.00;94.00
8105;DHT22;4095;48.942;9.104;2023-06-24T08:18:42;25.10;93.90
8105;DHT22;4095;48.942;9.104;2023-06-24T08:21:09;25.20;94.80
8105;DHT22;4095;48.942;9.104;2023-06-24T08:23:34;25.30;93.70
8105;DHT22;4095;48.942;9.104;2023-06-24T08:26:00;25.30;94.30
8105;DHT22;4095;48.942;9.104;2023-06-24T08:28:25;25.40;93.80
8105;DHT22;4095;48.942;9.104;2023-06-24T08:30:51;25.50;94.10
8105;DHT22;4095;48.942;9.104;2023-06-24T08:33:16;25.60;93.30
8105;DHT22;4095;48.942;9.104;2023-06-24T08:35:42;25.60;93.20
8105;DHT22;4095;48.942;9.104;2023-06-24T08:38:08;25.60;93.70
8105;DHT22;4095;48.942;9.104;2023-06-24T08:40:34;25.70;92.70
8105;DHT22;4095;48.942;9.104;2023-06-24T08:42:59;25.90;93.60
8105;DHT22;4095;48.942;9.104;2023-06-24T08:45:25;26.00;92.90
8105;DHT22;4095;48.942;9.104;2023-06-24T08:47:51;26.00;92.00
8105;DHT22;4095;48.942;9.104;2023-06-24T08:50:18;26.00;91.90
8105;DHT22;4095;48.942;9.104;2023-06-24T08:52:51;26.00;92.50
8105;DHT22;4095;48.942;9.104;2023-06-24T08:55:19;26.10;92.50
8105;DHT22;4095;48.942;9.104;2023-06-24T08:57:47;26.30;92.60
8105;DHT22;4095;48.942;9.104;2023-06-24T09:00:13;26.40;91.70
8105;DHT22;4095;48.942;9.104;2023-06-24T09:02:39;26.60;91.40
8105;DHT22;4095;48.942;9.104;2023-06-24T09:05:06;26.60;90.10
8105;DHT22;4095;48.942;9.104;2023-06-24T09:07:32;26.50;90.40
8105;DHT22;4095;48.942;9.104;2023-06-24T09:09:57;26.60;91.00
8105;DHT22;4095;48.942;9.104;2023-06-24T09:12:25;26.70;90.70
8105;DHT22;4095;48.942;9.104;2023-06-24T09:14:51;26.90;91.30
8105;DHT22;4095;48.942;9.104;2023-06-24T09:17:17;26.90;89.50
8105;DHT22;4095;48.942;9.104;2023-06-24T09:19:43;26.90;90.70
8105;DHT22;4095;48.942;9.104;2023-06-24T09:22:09;27.10;90.10
8105;DHT22;4095;48.942;9.104;2023-06-24T09:24:43;27.20;90.00
8105;DHT22;4095;48.942;9.104;2023-06-24T09:27:12;27.40;90.20
8105;DHT22;4095;48.942;9.104;2023-06-24T09:29:40;27.60;88.80
8105;DHT22;4095;48.942;9.104;2023-06-24T09:32:06;27.70;84.80
8105;DHT22;4095;48.942;9.104;2023-06-24T09:34:32;27.70;83.30
8105;DHT22;4095;48.942;9.104;2023-06-24T09:36:58;27.80;86.10
8105;DHT22;4095;48.942;9.104;2023-06-24T09:39:26;27.90;84.20
8105;DHT22;4095;48.942;9.104;2023-06-24T09:41:56;28.00;83.50
8105;DHT22;4095;48.942;9.104;2023-06-24T09:44:22;28.10;85.10
8105;DHT22;4095;48.942;9.104;2023-06-24T09:46:48;28.10;83.90
8105;DHT22;4095;48.942;9.104;2023-06-24T09:49:14;28.10;84.80
8105;DHT22;4095;48.942;9.104;2023-06-24T09:51:43;28.20;85.70
8105;DHT22;4095;48.942;9.104;2023-06-24T09:54:10;28.30;82.20
8105;DHT22;4095;48.942;9.104;2023-06-24T09:56:37;28.40;83.60
8105;DHT22;4095;48.942;9.104;2023-06-24T09:59:05;28.50;81.10
8105;DHT22;4095;48.942;9.104;2023-06-24T10:01:32;28.40;83.60
8105;DHT22;4095;48.942;9.104;2023-06-24T10:04:01;28.50;83.00
8105;DHT22;4095;48.942;9.104;2023-06-24T10:06:27;28.60;81.00
8105;DHT22;4095;48.942;9.104;2023-06-24T10:08:53;28.70;80.90
8105;DHT22;4095;48.942;9.104;2023-06-24T10:11:18;28.80;81.10
8105;DHT22;4095;48.942;9.104;2023-06-24T10:13:44;28.90;79.10
8105;DHT22;4095;48.942;9.104;2023-06-24T10:16:10;28.90;79.40
8105;DHT22;4095;48.942;9.104;2023-06-24T10:18:39;29.00;79.40
8105;DHT22;4095;48.942;9.104;2023-06-24T10:21:07;29.00;76.70
8105;DHT22;4095;48.942;9.104;2023-06-24T10:23:51;29.10;77.20
8105;DHT22;4095;48.942;9.104;2023-06-24T10:26:27;29.10;77.50
8105;DHT22;4095;48.942;9.104;2023-06-24T10:31:52;29.10;74.20
8105;DHT22;4095;48.942;9.104;2023-06-24T10:34:29;29.10;74.70
8105;DHT22;4095;48.942;9.104;2023-06-24T10:36:59;29.20;78.00
8105;DHT22;4095;48.942;9.104;2023-06-24T10:39:58;29.30;78.70
8105;DHT22;4095;48.942;9.104;2023-06-24T10:42:43;29.50;76.70
8105;DHT22;4095;48.942;9.104;2023-06-24T10:47:38;29.70;75.80
8105;DHT22;4095;48.942;9.104;2023-06-24T10:50:05;29.70;74.90
8105;DHT22;4095;48.942;9.104;2023-06-24T10:52:31;29.80;74.30
8105;DHT22;4095;48.942;9.104;2023-06-24T10:54:58;29.80;75.80
8105;DHT22;4095;48.942;9.104;2023-06-24T10:57:26;29.80;72.70
8105;DHT22;4095;48.942;9.104;2023-06-24T10:59:53;29.80;72.00
8105;DHT22;4095;48.942;9.104;2023-06-24T11:02:21;29.70;71.30
8105;DHT22;4095;48.942;9.104;2023-06-24T11:04:52;29.60;72.80
8105;DHT22;4095;48.942;9.104;2023-06-24T11:07:19;29.70;73.20
8105;DHT22;4095;48.942;9.104;2023-06-24T11:10:14;29.80;72.70
8105;DHT22;4095;48.942;9.104;2023-06-24T11:12:41;30.00;75.00
8105;DHT22;4095;48.942;9.104;2023-06-24T11:15:12;30.10;73.30
8105;DHT22;4095;48.942;9.104;2023-06-24T11:17:39;30.30;72.30
8105;DHT22;4095;48.942;9.104;2023-06-24T11:20:09;30.40;72.10
8105;DHT22;4095;48.942;9.104;2023-06-24T11:22:35;30.40;72.30
8105;DHT22;4095;48.942;9.104;2023-06-24T11:25:01;30.60;73.50
8105;DHT22;4095;48.942;9.104;2023-06-24T11:27:28;30.70;73.40
8105;DHT22;4095;48.942;9.104;2023-06-24T11:29:55;30.70;73.50
8105;DHT22;4095;48.942;9.104;2023-06-24T11:32:21;30.80;71.80
8105;DHT22;4095;48.942;9.104;2023-06-24T11:34:48;30.90;73.90
8105;DHT22;4095;48.942;9.104;2023-06-24T11:37:15;30.90;71.80
8105;DHT22;4095;48.942;9.104;2023-06-24T11:39:40;31.00;71.80
8105;DHT22;4095;48.942;9.104;2023-06-24T11:42:07;30.90;71.30
8105;DHT22;4095;48.942;9.104;2023-06-24T11:44:34;31.00;71.80
8105;DHT22;4095;48.942;9.104;2023-06-24T11:47:07;31.10;71.30
8105;DHT22;4095;48.942;9.104;2023-06-24T11:49:56;31.20;69.80
8105;DHT22;4095;48.942;9.104;2023-06-24T11:55:18;31.40;69.10
8105;DHT22;4095;48.942;9.104;2023-06-24T12:00:25;31.00;68.50
8105;DHT22;4095;48.942;9.104;2023-06-24T12:02:53;30.90;68.50
8105;DHT22;4095;48.942;9.104;2023-06-24T12:05:27;30.80;67.60
8105;DHT22;4095;48.942;9.104;2023-06-24T12:07:58;30.80;70.00
8105;DHT22;4095;48.942;9.104;2023-06-24T12:10:25;30.90;69.10
8105;DHT22;4095;48.942;9.104;2023-06-24T12:12:51;31.00;70.90
8105;DHT22;4095;48.942;9.104;2023-06-24T12:15:16;31.20;70.00
8105;DHT22;4095;48.942;9.104;2023-06-24T12:17:42;31.30;67.90
8105;DHT22;4095;48.942;9.104;2023-06-24T12:20:08;31.40;70.70
8105;DHT22;4095;48.942;9.104;2023-06-24T12:22:35;31.50;67.10
8105;DHT22;4095;48.942;9.104;2023-06-24T12:25:01;31.40;68.30
8105;DHT22;4095;48.942;9.104;2023-06-24T12:27:26;31.40;66.90
8105;DHT22;4095;48.942;9.104;2023-06-24T12:29:52;31.30;68.20
8105;DHT22;4095;48.942;9.104;2023-06-24T12:32:17;31.20;68.80
8105;DHT22;4095;48.942;9.104;2023-06-24T12:34:43;31.20;69.70
8105;DHT22;4095;48.942;9.104;2023-06-24T12:37:08;31.20;67.60
8105;DHT22;4095;48.942;9.104;2023-06-24T12:39:34;31.10;68.80
8105;DHT22;4095;48.942;9.104;2023-06-24T12:41:59;31.10;68.50
8105;DHT22;4095;48.942;9.104;2023-06-24T12:44:25;31.30;70.20
8105;DHT22;4095;48.942;9.104;2023-06-24T12:46:51;31.40;68.10
8105;DHT22;4095;48.942;9.104;2023-06-24T12:49:16;31.40;67.60
8105;DHT22;4095;48.942;9.104;2023-06-24T12:51:42;31.20;65.00
8105;DHT22;4095;48.942;9.104;2023-06-24T12:54:07;31.20;66.20
8105;DHT22;4095;48.942;9.104;2023-06-24T12:56:33;31.10;67.10
8105;DHT22;4095;48.942;9.104;2023-06-24T12:58:59;31.10;66.40
8105;DHT22;4095;48.942;9.104;2023-06-24T13:01:24;31.00;66.90
8105;DHT22;4095;48.942;9.104;2023-06-24T13:03:50;30.90;66.90
8105;DHT22;4095;48.942;9.104;2023-06-24T13:06:15;30.80;68.00
8105;DHT22;4095;48.942;9.104;2023-06-24T13:08:41;30.80;70.30
8105;DHT22;4095;48.942;9.104;2023-06-24T13:11:06;30.70;70.20
8105;DHT22;4095;48.942;9.104;2023-06-24T13:13:32;30.80;71.70
8105;DHT22;4095;48.942;9.104;2023-06-24T13:15:58;30.70;69.20
8105;DHT22;4095;48.942;9.104;2023-06-24T13:18:23;30.60;68.30
8105;DHT22;4095;48.942;9.104;2023-06-24T13:20:49;30.50;69.20
8105;DHT22;4095;48.942;9.104;2023-06-24T13:23:14;30.50;69.60
8105;DHT22;4095;48.942;9.104;2023-06-24T13:25:40;30.40;68.40
8105;DHT22;4095;48.942;9.104;2023-06-24T13:28:05;30.30;64.60
8105;DHT22;4095;48.942;9.104;2023-06-24T13:30:31;30.00;65.00
8105;DHT22;4095;48.942;9.104;2023-06-24T13:32:57;30.00;67.40
8105;DHT22;4095;48.942;9.104;2023-06-24T13:35:22;29.90;68.60
8105;DHT22;4095;48.942;9.104;2023-06-24T13:37:48;29.80;68.40
8105;DHT22;4095;48.942;9.104;2023-06-24T13:40:13;29.70;67.80
8105;DHT22;4095;48.942;9.104;2023-06-24T13:42:39;29.70;68.50
8105;DHT22;4095;48.942;9.104;2023-06-24T13:45:05;29.70;68.50
8105;DHT22;4095;48.942;9.104;2023-06-24T13:47:31;29.70;70.10
8105;DHT22;4095;48.942;9.104;2023-06-24T13:49:56;29.60;69.50
8105;DHT22;4095;48.942;9.104;2023-06-24T13:52:24;29.70;70.30
8105;DHT22;4095;48.942;9.104;2023-06-24T13:54:50;29.60;68.10
8105;DHT22;4095;48.942;9.104;2023-06-24T13:57:16;29.60;68.70
8105;DHT22;4095;48.942;9.104;2023-06-24T13:59:42;29.50;69.40
8105;DHT22;4095;48.942;9.104;2023-06-24T14:02:08;29.50;68.70
8105;DHT22;4095;48.942;9.104;2023-06-24T14:04:34;29.50;69.00
8105;DHT22;4095;48.942;9.104;2023-06-24T14:07:00;29.50;68.60
8105;DHT22;4095;48.942;9.104;2023-06-24T14:09:27;29.50;68.40
8105;DHT22;4095;48.942;9.104;2023-06-24T14:11:53;29.50;69.40
8105;DHT22;4095;48.942;9.104;2023-06-24T14:14:20;29.50;69.40
8105;DHT22;4095;48.942;9.104;2023-06-24T14:16:46;29.50;69.10
8105;DHT22;4095;48.942;9.104;2023-06-24T14:19:12;29.50;66.80
8105;DHT22;4095;48.942;9.104;2023-06-24T14:21:37;29.40;67.40
8105;DHT22;4095;48.942;9.104;2023-06-24T14:24:05;29.40;68.30
8105;DHT22;4095;48.942;9.104;2023-06-24T14:26:32;29.40;67.70
8105;DHT22;4095;48.942;9.104;2023-06-24T14:28:58;29.30;68.30
8105;DHT22;4095;48.942;9.104;2023-06-24T14:31:23;29.40;68.10
8105;DHT22;4095;48.942;9.104;2023-06-24T14:33:49;29.30;67.10
8105;DHT22;4095;48.942;9.104;2023-06-24T14:36:15;29.30;67.30
8105;DHT22;4095;48.942;9.104;2023-06-24T14:38:40;29.30;68.00
8105;DHT22;4095;48.942;9.104;2023-06-24T14:41:08;29.30;68.20
8105;DHT22;4095;48.942;9.104;2023-06-24T14:43:34;29.20;66.60
8105;DHT22;4095;48.942;9.104;2023-06-24T14:46:00;29.10;65.30
8105;DHT22;4095;48.942;9.104;2023-06-24T14:48:25;29.10;66.70
8105;DHT22;4095;48.942;9.104;2023-06-24T14:50:51;29.00;68.30
8105;DHT22;4095;48.942;9.104;2023-06-24T14:53:16;29.00;68.10
8105;DHT22;4095;48.942;9.104;2023-06-24T14:55:42;29.00;66.50
8105;DHT22;4095;48.942;9.104;2023-06-24T14:58:07;28.90;67.80
8105;DHT22;4095;48.942;9.104;2023-06-24T15:00:33;28.90;67.50
8105;DHT22;4095;48.942;9.104;2023-06-24T15:02:58;28.80;68.20
8105;DHT22;4095;48.942;9.104;2023-06-24T15:05:24;28.90;68.00
8105;DHT22;4095;48.942;9.104;2023-06-24T15:07:49;28.80;66.80
8105;DHT22;4095;48.942;9.104;2023-06-24T15:10:15;28.80;66.10
8105;DHT22;4095;48.942;9.104;2023-06-24T15:12:41;28.80;67.90
8105;DHT22;4095;48.942;9.104;2023-06-24T15:15:06;28.90;67.90
8105;DHT22;4095;48.942;9.104;2023-06-24T15:17:32;28.90;68.00
8105;DHT22;4095;48.942;9.104;2023-06-24T15:20:00;28.90;67.90
8105;DHT22;4095;48.942;9.104;2023-06-24T15:22:26;28.80;67.00
8105;DHT22;4095;48.942;9.104;2023-06-24T15:24:51;28.80;66.80
8105;DHT22;4095;48.942;9.104;2023-06-24T15:27:17;28.80;67.00
8105;DHT22;4095;48.942;9.104;2023-06-24T15:29:42;28.80;67.70
8105;DHT22;4095;48.942;9.104;2023-06-24T15:32:08;28.90;66.80
8105;DHT22;4095;48.942;9.104;2023-06-24T15:34:33;29.00;68.10
8105;DHT22;4095;48.942;9.104;2023-06-24T15:36:59;29.00;67.80
8105;DHT22;4095;48.942;9.104;2023-06-24T15:39:24;29.10;68.50
8105;DHT22;4095;48.942;9.104;2023-06-24T15:41:50;29.10;67.70
8105;DHT22;4095;48.942;9.104;2023-06-24T15:44:16;29.20;67.20
8105;DHT22;4095;48.942;9.104;2023-06-24T15:46:41;29.30;67.30
8105;DHT22;4095;48.942;9.104;2023-06-24T15:49:08;29.30;67.80
8105;DHT22;4095;48.942;9.104;2023-06-24T15:51:34;29.30;66.80
8105;DHT22;4095;48.942;9.104;2023-06-24T15:53:59;29.30;66.20
8105;DHT22;4095;48.942;9.104;2023-06-24T15:56:25;29.30;66.80
8105;DHT22;4095;48.942;9.104;2023-06-24T15:58:51;29.20;65.30
8105;DHT22;4095;48.942;9.104;2023-06-24T16:01:16;29.20;66.20
8105;DHT22;4095;48.942;9.104;2023-06-24T16:03:42;29.20;67.30
8105;DHT22;4095;48.942;9.104;2023-06-24T16:06:08;29.20;67.00
8105;DHT22;4095;48.942;9.104;2023-06-24T16:08:33;29.20;67.30
8105;DHT22;4095;48.942;9.104;2023-06-24T16:10:59;29.30;67.40
8105;DHT22;4095;48.942;9.104;2023-06-24T16:13:26;29.20;67.10
8105;DHT22;4095;48.942;9.104;2023-06-24T16:15:52;29.20;67.80
8105;DHT22;4095;48.942;9.104;2023-06-24T16:18:18;29.10;67.20
8105;DHT22;4095;48.942;9.104;2023-06-24T16:20:43;29.00;66.50
8105;DHT22;4095;48.942;9.104;2023-06-24T16:23:09;29.00;67.80
8105;DHT22;4095;48.942;9.104;2023-06-24T16:25:35;29.00;67.30